createdAt,value
2023-01-17T00:02:18.387Z,67.55
2023-01-17T00:05:04.724Z,67.26
2023-01-17T00:07:51.093Z,67.13
2023-01-17T00:10:20.910Z,67.56
2023-01-17T00:12:53.955Z,67.71
2023-01-17T00:15:23.074Z,68.07
2023-01-17T00:17:50.552Z,68.71
2023-01-17T00:20:44.764Z,69.45
2023-01-17T00:23:37.511Z,69.46
2023-01-17T00:26:09.702Z,69.96
2023-01-17T00:28:39.903Z,69.58
2023-01-17T00:31:09.026Z,69.54
2023-01-17T00:33:36.602Z,69.61
2023-01-17T00:36:04.477Z,69.56
2023-01-17T00:38:33.945Z,69.33
2023-01-17T00:41:06.504Z,69.49
2023-01-17T00:43:52.179Z,69.48
2023-01-17T00:46:37.982Z,69.19
2023-01-17T00:49:23.968Z,69.16
2023-01-17T00:52:09.571Z,69.21
2023-01-17T00:54:55.422Z,69.33
2023-01-17T00:57:40.888Z,69.26
2023-01-17T01:00:27.087Z,69.10
2023-01-17T01:03:12.921Z,68.99
2023-01-17T01:05:58.430Z,69.24
2023-01-17T01:08:47.116Z,69.33
2023-01-17T01:11:36.037Z,69.19
2023-01-17T01:14:22.619Z,69.07
2023-01-17T01:17:09.259Z,69.07
2023-01-17T01:19:55.066Z,69.10
2023-01-17T01:22:40.861Z,68.99
2023-01-17T01:25:27.189Z,68.74
2023-01-17T01:28:21.690Z,68.42
2023-01-17T01:31:07.193Z,68.63
2023-01-17T01:33:34.251Z,68.66
2023-01-17T01:36:01.230Z,68.81
2023-01-17T01:38:28.306Z,68.87
2023-01-17T01:40:57.104Z,68.89
2023-01-17T01:43:45.997Z,68.83
2023-01-17T01:46:41.511Z,69.01
2023-01-17T01:49:26.131Z,68.80
2023-01-17T01:51:58.845Z,68.87
2023-01-17T01:54:33.913Z,68.87
2023-01-17T01:57:03.987Z,68.64
2023-01-17T01:59:33.111Z,68.57
2023-01-17T02:02:00.272Z,68.71
2023-01-17T02:04:28.654Z,68.58
2023-01-17T02:07:25.125Z,68.64
2023-01-17T02:09:52.863Z,68.93
2023-01-17T02:12:21.068Z,69.24
2023-01-17T02:14:48.187Z,69.44
2023-01-17T02:17:32.984Z,69.58
2023-01-17T02:20:34.126Z,69.81
2023-01-17T02:23:31.876Z,70.08
2023-01-17T02:26:36.436Z,70.92
2023-01-17T02:29:21.386Z,71.39
2023-01-17T02:32:03.479Z,71.89
2023-01-17T02:35:02.871Z,71.97
2023-01-17T02:37:40.512Z,71.69
2023-01-17T02:40:16.852Z,71.70
2023-01-17T02:42:53.779Z,72.14
2023-01-17T02:45:21.413Z,71.73
2023-01-17T02:47:48.502Z,71.82
2023-01-17T02:50:21.220Z,71.92
2023-01-17T02:52:54.191Z,72.16
2023-01-17T02:55:39.904Z,72.11
2023-01-17T02:58:24.320Z,71.84
2023-01-17T03:01:09.641Z,71.82
2023-01-17T03:03:42.470Z,71.66
2023-01-17T03:06:16.899Z,71.13
2023-01-17T03:08:46.504Z,70.93
2023-01-17T03:11:14.419Z,71.24
2023-01-17T03:13:42.467Z,71.25
2023-01-17T03:16:17.163Z,70.90
2023-01-17T03:18:44.435Z,70.72
2023-01-17T03:21:11.471Z,70.36
2023-01-17T03:23:38.671Z,70.11
2023-01-17T03:26:05.822Z,69.88
2023-01-17T03:28:34.713Z,70.05
2023-01-17T03:31:01.802Z,69.99
2023-01-17T03:33:28.921Z,70.09
2023-01-17T03:35:58.329Z,70.31
2023-01-17T03:38:29.453Z,70.56
2023-01-17T03:40:56.822Z,70.31
2023-01-17T03:43:23.948Z,70.06
2023-01-17T03:45:54.554Z,70.12
2023-01-17T03:48:22.101Z,70.40
2023-01-17T03:50:53.315Z,70.46
2023-01-17T03:53:20.364Z,70.56
2023-01-17T03:55:48.082Z,70.57
2023-01-17T03:58:16.502Z,70.28
2023-01-17T04:00:43.873Z,69.91
2023-01-17T04:03:10.971Z,70.19
2023-01-17T04:05:37.944Z,69.95
2023-01-17T04:08:07.302Z,69.58
2023-01-17T04:10:34.366Z,69.70
2023-01-17T04:13:01.330Z,69.66
2023-01-17T04:15:28.480Z,69.54
2023-01-17T04:17:55.702Z,69.52
2023-01-17T04:20:33.425Z,69.48
2023-01-17T04:23:00.794Z,69.39
2023-01-17T04:25:30.115Z,69.25
2023-01-17T04:27:58.657Z,69.72
2023-01-17T04:30:26.693Z,69.91
2023-01-17T04:32:54.080Z,70.86
2023-01-17T04:35:21.707Z,72.83
2023-01-17T04:37:48.764Z,74.15
2023-01-17T04:40:15.967Z,74.81
2023-01-17T04:42:45.361Z,74.84
2023-01-17T04:45:13.490Z,75.08
2023-01-17T04:47:41.054Z,74.95
2023-01-17T04:50:09.833Z,75.43
2023-01-17T04:52:37.209Z,75.48
2023-01-17T04:55:04.800Z,75.68
2023-01-17T04:57:31.861Z,75.72
2023-01-17T04:59:58.909Z,76.05
2023-01-17T05:02:26.052Z,75.66
2023-01-17T05:04:53.515Z,75.78
2023-01-17T05:07:20.637Z,75.77
2023-01-17T05:09:47.836Z,75.39
2023-01-17T05:12:14.942Z,75.97
2023-01-17T05:14:41.935Z,75.57
2023-01-17T05:17:11.390Z,75.70
2023-01-17T05:19:38.519Z,75.48
2023-01-17T05:22:15.093Z,75.39
2023-01-17T05:24:46.536Z,75.23
2023-01-17T05:27:14.540Z,74.87
2023-01-17T05:29:41.975Z,74.67
2023-01-17T05:32:09.318Z,74.74
2023-01-17T05:34:36.475Z,74.58
2023-01-17T05:37:03.693Z,74.55
2023-01-17T05:39:31.294Z,74.56
2023-01-17T05:41:59.403Z,74.33
2023-01-17T05:44:27.896Z,74.26
2023-01-17T05:46:56.321Z,74.03
2023-01-17T05:49:23.589Z,74.30
2023-01-17T05:51:51.195Z,73.96
2023-01-17T05:54:19.202Z,73.91
2023-01-17T05:56:46.230Z,73.61
2023-01-17T05:59:14.282Z,73.58
2023-01-17T06:01:41.473Z,73.86
2023-01-17T06:04:08.813Z,74.08
2023-01-17T06:06:35.873Z,73.76
2023-01-17T06:09:03.109Z,74.16
2023-01-17T06:11:30.323Z,74.12
2023-01-17T06:13:57.293Z,73.89
2023-01-17T06:16:24.363Z,73.68
2023-01-17T06:18:51.395Z,73.73
2023-01-17T06:21:18.900Z,73.50
2023-01-17T06:23:46.132Z,73.37
2023-01-17T06:26:13.301Z,73.39
2023-01-17T06:28:40.324Z,73.34
2023-01-17T06:31:09.149Z,73.21
2023-01-17T06:33:36.486Z,72.98
2023-01-17T06:36:03.954Z,72.69
2023-01-17T06:38:31.578Z,72.48
2023-01-17T06:41:00.516Z,72.31
2023-01-17T06:43:32.672Z,71.88
2023-01-17T06:46:01.132Z,72.01
2023-01-17T06:48:28.254Z,71.82
2023-01-17T06:50:57.225Z,71.54
2023-01-17T06:53:24.248Z,71.60
2023-01-17T06:55:52.727Z,71.49
2023-01-17T06:58:20.892Z,71.62
2023-01-17T07:00:48.227Z,71.68
2023-01-17T07:03:21.544Z,71.78
2023-01-17T07:05:48.854Z,72.11
2023-01-17T07:08:17.143Z,71.99
2023-01-17T07:10:45.355Z,72.19
2023-01-17T07:13:13.430Z,72.01
2023-01-17T07:15:40.471Z,71.98
2023-01-17T07:18:07.667Z,71.75
2023-01-17T07:20:35.728Z,71.51
2023-01-17T07:23:02.852Z,70.99
2023-01-17T07:25:30.026Z,70.97
2023-01-17T07:27:57.834Z,71.06
2023-01-17T07:30:25.156Z,71.02
2023-01-17T07:32:55.965Z,70.82
2023-01-17T07:35:26.746Z,70.10
2023-01-17T07:37:54.793Z,69.44
2023-01-17T07:40:22.821Z,68.86
2023-01-17T07:42:50.125Z,68.06
2023-01-17T07:45:18.127Z,67.29
2023-01-17T07:47:45.426Z,67.25
2023-01-17T07:50:13.805Z,66.22
2023-01-17T07:52:41.101Z,66.44
2023-01-17T07:55:09.164Z,66.20
2023-01-17T07:57:36.244Z,66.00
2023-01-17T08:00:04.569Z,65.58
2023-01-17T08:02:39.258Z,65.86
2023-01-17T08:05:06.544Z,66.36
2023-01-17T08:07:33.540Z,66.16
2023-01-17T08:10:01.465Z,66.59
2023-01-17T08:12:29.651Z,66.63
2023-01-17T08:14:56.849Z,67.00
2023-01-17T08:17:23.903Z,67.17
2023-01-17T08:19:52.286Z,67.40
2023-01-17T08:22:19.824Z,67.72
2023-01-17T08:24:46.840Z,67.84
2023-01-17T08:27:13.970Z,67.81
2023-01-17T08:29:47.042Z,69.45
2023-01-17T08:32:15.143Z,71.02
2023-01-17T08:34:42.499Z,70.43
2023-01-17T08:37:09.831Z,70.52
2023-01-17T08:39:36.957Z,69.18
2023-01-17T08:42:04.247Z,69.65
2023-01-17T08:44:31.483Z,69.29
2023-01-17T08:46:59.205Z,68.59
2023-01-17T08:49:28.422Z,68.08
2023-01-17T08:51:55.745Z,68.18
2023-01-17T08:54:23.246Z,68.12
2023-01-17T08:56:53.136Z,68.52
2023-01-17T08:59:20.245Z,68.76
2023-01-17T09:01:47.557Z,68.62
2023-01-17T09:04:15.250Z,67.93
2023-01-17T09:06:48.559Z,67.99
2023-01-17T09:09:17.069Z,68.35
2023-01-17T09:11:44.359Z,67.97
2023-01-17T09:14:14.743Z,68.12
2023-01-17T09:16:41.871Z,68.33
2023-01-17T09:19:09.644Z,68.07
2023-01-17T09:21:36.845Z,67.71
2023-01-17T09:24:04.120Z,67.37
2023-01-17T09:26:31.930Z,66.73
2023-01-17T09:28:59.085Z,66.55
2023-01-17T09:31:27.409Z,66.36
2023-01-17T09:33:56.701Z,66.71
2023-01-17T09:36:24.576Z,66.74
2023-01-17T09:38:57.437Z,67.27
2023-01-17T09:41:33.702Z,67.42
2023-01-17T09:44:03.292Z,66.98
2023-01-17T09:46:33.859Z,66.44
2023-01-17T09:49:09.784Z,66.04
2023-01-17T09:51:37.351Z,65.40
2023-01-17T09:54:05.055Z,65.84
2023-01-17T09:56:47.225Z,66.44
2023-01-17T09:59:35.977Z,66.39
2023-01-17T10:02:20.838Z,66.19
2023-01-17T10:05:30.121Z,65.79
2023-01-17T10:08:24.185Z,65.40
2023-01-17T10:11:09.572Z,65.15
2023-01-17T10:14:04.656Z,63.79
2023-01-17T10:16:47.736Z,62.91
2023-01-17T10:19:32.963Z,62.70
2023-01-17T10:22:30.640Z,61.85
2023-01-17T10:25:16.722Z,61.53
2023-01-17T10:28:12.825Z,62.07
2023-01-17T10:30:49.150Z,61.94
2023-01-17T10:33:37.120Z,61.98
2023-01-17T10:36:14.127Z,62.76
2023-01-17T10:38:47.776Z,61.70
2023-01-17T10:41:23.409Z,60.93
2023-01-17T10:44:02.389Z,61.48
2023-01-17T10:46:43.727Z,62.37
2023-01-17T10:49:23.659Z,62.64
2023-01-17T10:51:51.671Z,62.98
2023-01-17T10:54:45.110Z,62.73
2023-01-17T10:57:43.223Z,61.32
2023-01-17T11:00:25.694Z,61.52
2023-01-17T11:02:52.916Z,62.02
2023-01-17T11:05:31.785Z,60.65
2023-01-17T11:08:06.902Z,59.46
2023-01-17T11:10:36.887Z,59.44
2023-01-17T11:13:25.019Z,59.50
2023-01-17T11:16:01.015Z,59.84
2023-01-17T11:18:35.523Z,59.46
2023-01-17T11:21:17.901Z,60.07
2023-01-17T11:23:50.978Z,60.77
2023-01-17T11:26:26.391Z,61.34
2023-01-17T11:29:13.285Z,60.25
2023-01-17T11:31:40.363Z,59.35
2023-01-17T11:34:18.952Z,59.76
2023-01-17T11:36:46.151Z,59.83
2023-01-17T11:39:19.014Z,60.31
2023-01-17T11:41:47.992Z,59.66
2023-01-17T11:44:22.624Z,59.35
2023-01-17T11:47:08.362Z,58.79
2023-01-17T11:49:36.056Z,58.70
2023-01-17T11:52:26.400Z,58.27
2023-01-17T11:54:55.514Z,57.94
2023-01-17T11:57:32.936Z,58.35
2023-01-17T11:59:59.965Z,59.05
2023-01-17T12:02:51.863Z,58.82
2023-01-17T12:05:43.096Z,58.68
2023-01-17T12:08:44.418Z,57.30
2023-01-17T12:11:23.833Z,55.83
2023-01-17T12:14:12.377Z,54.88
2023-01-17T12:16:51.437Z,54.41
2023-01-17T12:19:54.343Z,54.45
2023-01-17T12:22:42.308Z,53.98
2023-01-17T12:25:33.521Z,54.28
2023-01-17T12:28:12.660Z,54.15
2023-01-17T12:31:05.096Z,54.34
2023-01-17T12:33:46.112Z,53.64
2023-01-17T12:36:25.593Z,53.42
2023-01-17T12:38:52.684Z,53.20
2023-01-17T12:41:26.579Z,52.00
2023-01-17T12:44:01.005Z,49.67
2023-01-17T12:46:44.541Z,49.21
2023-01-17T12:49:38.307Z,48.81
2023-01-17T12:52:34.485Z,48.48
2023-01-17T12:55:10.868Z,49.14
2023-01-17T12:57:45.484Z,49.03
2023-01-17T13:00:25.633Z,49.55
2023-01-17T13:03:04.768Z,49.70
2023-01-17T13:05:41.958Z,50.10
2023-01-17T13:08:18.211Z,50.86
2023-01-17T13:10:58.299Z,50.61
2023-01-17T13:13:28.193Z,51.58
2023-01-17T13:16:27.605Z,50.43
2023-01-17T13:18:57.825Z,49.43
2023-01-17T13:21:33.430Z,49.78
2023-01-17T13:24:02.240Z,49.65
2023-01-17T13:26:48.940Z,49.38
2023-01-17T13:29:30.211Z,50.21
2023-01-17T13:32:34.242Z,49.86
2023-01-17T13:35:13.972Z,49.88
2023-01-17T13:38:02.267Z,49.65
2023-01-17T13:40:33.733Z,49.09
2023-01-17T13:43:12.276Z,48.38
2023-01-17T13:45:39.927Z,47.80
2023-01-17T13:48:12.701Z,47.98
2023-01-17T13:51:08.238Z,47.59
2023-01-17T13:53:35.208Z,47.87
2023-01-17T13:56:23.202Z,47.37
2023-01-17T13:58:50.605Z,48.13
2023-01-17T14:01:23.783Z,48.86
2023-01-17T14:03:51.124Z,48.02
2023-01-17T14:06:41.246Z,48.27
2023-01-17T14:09:08.445Z,48.76
2023-01-17T14:12:01.172Z,49.45
2023-01-17T14:14:40.430Z,49.89
2023-01-17T14:17:17.156Z,50.28
2023-01-17T14:19:48.920Z,50.55
2023-01-17T14:22:18.645Z,50.61
2023-01-17T14:25:10.135Z,51.34
2023-01-17T14:27:47.671Z,51.95
2023-01-17T14:30:18.204Z,52.37
2023-01-17T14:33:10.772Z,52.99
2023-01-17T14:35:41.293Z,53.58
2023-01-17T14:38:26.240Z,54.43
2023-01-17T14:41:07.951Z,55.27
2023-01-17T14:43:40.989Z,56.40
2023-01-17T14:46:32.736Z,57.69
2023-01-17T14:49:06.121Z,58.82
2023-01-17T14:51:35.658Z,58.69
2023-01-17T14:54:06.586Z,58.68
2023-01-17T14:56:34.239Z,59.26
2023-01-17T14:59:27.677Z,59.35
2023-01-17T15:02:07.696Z,59.58
2023-01-17T15:04:39.794Z,60.26
2023-01-17T15:07:08.188Z,60.32
2023-01-17T15:09:38.221Z,60.91
2023-01-17T15:12:10.513Z,61.58
2023-01-17T15:14:43.137Z,62.67
2023-01-17T15:17:21.335Z,63.52
2023-01-17T15:19:54.564Z,64.20
2023-01-17T15:22:23.825Z,64.28
2023-01-17T15:24:51.319Z,64.36
2023-01-17T15:27:18.540Z,64.85
2023-01-17T15:29:47.081Z,64.48
2023-01-17T15:32:28.062Z,64.73
2023-01-17T15:34:55.279Z,64.24
2023-01-17T15:37:36.205Z,64.31
2023-01-17T15:40:07.775Z,64.26
2023-01-17T15:42:38.755Z,64.49
2023-01-17T15:45:13.237Z,65.13
2023-01-17T15:47:40.457Z,65.66
2023-01-17T15:50:27.896Z,66.11
2023-01-17T15:52:57.147Z,66.13
2023-01-17T15:55:39.845Z,66.84
2023-01-17T15:58:33.024Z,67.22
2023-01-17T16:01:00.713Z,67.70
2023-01-17T16:03:30.833Z,67.95
2023-01-17T16:06:00.873Z,68.15
2023-01-17T16:08:38.667Z,68.49
2023-01-17T16:11:07.484Z,68.77
2023-01-17T16:13:38.794Z,69.02
2023-01-17T16:16:35.445Z,69.28
2023-01-17T16:19:03.066Z,69.44
2023-01-17T16:21:31.539Z,69.54
2023-01-17T16:24:00.051Z,69.28
2023-01-17T16:26:29.403Z,69.48
2023-01-17T16:28:57.097Z,69.65
2023-01-17T16:31:24.215Z,69.89
2023-01-17T16:33:51.837Z,69.96
2023-01-17T16:36:20.958Z,70.08
2023-01-17T16:38:50.477Z,70.30
2023-01-17T16:41:18.274Z,70.56
2023-01-17T16:43:45.373Z,70.51
2023-01-17T16:46:12.509Z,70.71
2023-01-17T16:48:39.672Z,71.02
2023-01-17T16:51:07.517Z,71.39
2023-01-17T16:53:35.918Z,71.56
2023-01-17T16:56:10.151Z,71.73
2023-01-17T16:58:37.378Z,71.90
2023-01-17T17:01:22.937Z,71.95
2023-01-17T17:03:50.485Z,72.21
2023-01-17T17:06:17.903Z,72.34
2023-01-17T17:08:45.080Z,72.56
2023-01-17T17:11:21.699Z,72.92
2023-01-17T17:13:50.200Z,73.02
2023-01-17T17:16:19.094Z,73.25
2023-01-17T17:18:53.599Z,73.58
2023-01-17T17:21:21.046Z,74.21
2023-01-17T17:23:51.147Z,74.42
2023-01-17T17:26:18.704Z,74.74
2023-01-17T17:28:45.861Z,75.07
2023-01-17T17:31:12.964Z,75.45
2023-01-17T17:33:40.177Z,75.53
2023-01-17T17:36:10.428Z,75.94
2023-01-17T17:38:51.109Z,76.17
2023-01-17T17:41:26.773Z,76.27
2023-01-17T17:43:54.805Z,76.43
2023-01-17T17:46:23.459Z,76.64
2023-01-17T17:48:50.618Z,76.79
2023-01-17T17:51:29.094Z,76.84
2023-01-17T17:54:01.038Z,77.07
2023-01-17T17:56:29.986Z,77.07
2023-01-17T17:58:58.293Z,77.13
2023-01-17T18:01:25.798Z,77.29
2023-01-17T18:03:56.216Z,77.67
2023-01-17T18:06:24.310Z,77.92
2023-01-17T18:08:54.566Z,78.60
2023-01-17T18:11:24.760Z,78.31
2023-01-17T18:13:55.097Z,78.22
2023-01-17T18:16:28.777Z,78.63
2023-01-17T18:18:58.069Z,78.69
2023-01-17T18:21:27.787Z,78.80
2023-01-17T18:23:59.003Z,78.68
2023-01-17T18:26:29.959Z,78.85
2023-01-17T18:28:59.527Z,78.50
2023-01-17T18:31:27.968Z,78.28
2023-01-17T18:33:56.702Z,78.22
2023-01-17T18:36:25.051Z,78.46
2023-01-17T18:38:52.790Z,78.67
2023-01-17T18:41:33.349Z,78.70
2023-01-17T18:44:05.117Z,78.53
2023-01-17T18:46:33.411Z,77.95
2023-01-17T18:49:00.481Z,77.72
2023-01-17T18:51:30.264Z,77.57
2023-01-17T18:53:58.224Z,77.33
2023-01-17T18:56:26.411Z,77.37
2023-01-17T18:58:53.593Z,77.38
2023-01-17T19:01:23.566Z,77.36
2023-01-17T19:03:53.133Z,76.99
2023-01-17T19:06:23.392Z,76.65
2023-01-17T19:08:54.443Z,76.23
2023-01-17T19:11:24.805Z,75.99
2023-01-17T19:13:53.329Z,75.57
2023-01-17T19:16:28.183Z,75.54
2023-01-17T19:18:57.195Z,75.37
2023-01-17T19:21:27.602Z,75.12
2023-01-17T19:23:55.986Z,75.29
2023-01-17T19:26:25.157Z,75.44
2023-01-17T19:28:55.331Z,75.46
2023-01-17T19:31:27.815Z,75.65
2023-01-17T19:33:57.703Z,75.79
2023-01-17T19:36:27.596Z,75.62
2023-01-17T19:39:04.493Z,75.53
2023-01-17T19:41:34.357Z,75.53
2023-01-17T19:44:04.892Z,75.63
2023-01-17T19:46:32.771Z,75.21
2023-01-17T19:49:00.501Z,74.71
2023-01-17T19:51:28.185Z,74.89
2023-01-17T19:53:56.706Z,74.61
2023-01-17T19:56:26.054Z,74.59
2023-01-17T19:58:54.793Z,74.57
2023-01-17T20:01:26.799Z,74.83
2023-01-17T20:03:57.580Z,74.58
2023-01-17T20:06:29.148Z,74.90
2023-01-17T20:08:56.776Z,74.71
2023-01-17T20:11:25.739Z,74.99
2023-01-17T20:13:55.247Z,74.92
2023-01-17T20:16:23.922Z,74.87
2023-01-17T20:18:51.620Z,74.54
2023-01-17T20:21:21.419Z,74.84
2023-01-17T20:23:50.230Z,75.02
2023-01-17T20:26:23.370Z,75.43
2023-01-17T20:28:51.696Z,75.55
2023-01-17T20:31:21.225Z,75.72
2023-01-17T20:33:52.544Z,75.55
2023-01-17T20:36:21.930Z,75.54
2023-01-17T20:38:49.763Z,75.56
2023-01-17T20:41:22.781Z,75.68
2023-01-17T20:43:56.276Z,75.64
2023-01-17T20:46:26.118Z,75.84
2023-01-17T20:48:56.118Z,76.10
2023-01-17T20:51:27.972Z,75.86
2023-01-17T20:53:58.097Z,75.56
2023-01-17T20:56:29.034Z,75.29
2023-01-17T20:59:00.471Z,75.39
2023-01-17T21:01:28.434Z,74.93
2023-01-17T21:03:55.906Z,74.98
2023-01-17T21:06:24.894Z,74.48
2023-01-17T21:08:56.117Z,74.36
2023-01-17T21:11:30.943Z,74.02
2023-01-17T21:14:09.116Z,74.08
2023-01-17T21:16:40.332Z,74.03
2023-01-17T21:19:12.283Z,74.01
2023-01-17T21:21:42.409Z,73.89
2023-01-17T21:24:10.049Z,73.78
2023-01-17T21:26:43.139Z,73.80
2023-01-17T21:29:10.885Z,73.65
2023-01-17T21:31:41.136Z,73.60
2023-01-17T21:34:10.618Z,73.78
2023-01-17T21:36:40.489Z,73.73
2023-01-17T21:39:15.999Z,73.86
2023-01-17T21:41:51.366Z,73.67
2023-01-17T21:44:25.588Z,73.69
2023-01-17T21:46:55.978Z,74.19
2023-01-17T21:49:24.517Z,74.15
2023-01-17T21:51:54.791Z,74.10
2023-01-17T21:54:41.891Z,74.46
2023-01-17T21:57:31.087Z,74.54
2023-01-17T21:59:58.296Z,74.40
2023-01-17T22:02:28.061Z,74.85
2023-01-17T22:04:56.351Z,74.91
2023-01-17T22:07:24.906Z,75.08
2023-01-17T22:09:54.752Z,75.14
2023-01-17T22:12:22.803Z,75.41
2023-01-17T22:14:50.009Z,75.75
2023-01-17T22:17:17.073Z,75.42
2023-01-17T22:19:46.220Z,75.52
2023-01-17T22:22:13.893Z,75.46
2023-01-17T22:24:40.996Z,75.52
2023-01-17T22:27:10.217Z,75.73
2023-01-17T22:29:38.113Z,76.02
2023-01-17T22:32:06.248Z,75.94
2023-01-17T22:34:33.289Z,75.92
2023-01-17T22:37:00.722Z,75.88
2023-01-17T22:39:27.899Z,75.98
2023-01-17T22:41:54.852Z,75.94
2023-01-17T22:44:21.970Z,76.24
2023-01-17T22:46:48.997Z,76.27
2023-01-17T22:49:17.088Z,76.19
2023-01-17T22:51:45.024Z,76.61
2023-01-17T22:54:12.519Z,76.37
2023-01-17T22:56:39.530Z,76.22
2023-01-17T22:59:11.741Z,76.32
2023-01-17T23:01:43.122Z,76.32
2023-01-17T23:04:13.947Z,76.38
2023-01-17T23:06:42.046Z,76.67
2023-01-17T23:09:14.848Z,77.23
2023-01-17T23:11:44.066Z,77.87
2023-01-17T23:14:17.127Z,78.01
2023-01-17T23:17:23.764Z,77.77
2023-01-17T23:19:52.821Z,77.91
2023-01-17T23:22:20.823Z,76.85
2023-01-17T23:25:01.993Z,76.59
2023-01-17T23:27:51.849Z,76.08
2023-01-17T23:30:25.916Z,75.76
2023-01-17T23:32:56.309Z,75.32
2023-01-17T23:35:26.424Z,74.86
2023-01-17T23:38:12.143Z,74.21
2023-01-17T23:40:40.288Z,73.96
2023-01-17T23:43:26.471Z,74.31
2023-01-17T23:45:54.867Z,74.49
2023-01-17T23:48:24.835Z,74.98
2023-01-17T23:50:52.428Z,75.46
2023-01-17T23:53:23.893Z,76.07
2023-01-17T23:55:53.693Z,76.25
2023-01-17T23:58:23.187Z,76.37
